createdAt,value
2023-02-02T07:15:27.021Z,95926.66
2023-02-02T07:17:56.648Z,95932.94
2023-02-02T07:20:25.777Z,95924.84
2023-02-02T07:22:54.324Z,95923.00
2023-02-02T07:25:23.066Z,95929.09
2023-02-02T07:27:54.187Z,95937.00
2023-02-02T07:30:23.248Z,95952.59
2023-02-02T07:32:53.656Z,95949.31
2023-02-02T07:35:22.671Z,95954.81
2023-02-02T07:37:54.154Z,95946.06
2023-02-02T07:40:22.743Z,95949.50
2023-02-02T07:42:51.802Z,95945.19
2023-02-02T07:45:27.345Z,95942.97
2023-02-02T07:48:01.198Z,95943.78
2023-02-02T07:50:30.760Z,95947.22
2023-02-02T07:53:00.756Z,95950.44
2023-02-02T07:55:29.638Z,95944.97
2023-02-02T07:57:59.214Z,95939.50
2023-02-02T08:00:27.877Z,95947.19
2023-02-02T08:02:56.946Z,95947.19
2023-02-02T08:05:27.700Z,95944.50
2023-02-02T08:07:56.629Z,95955.03
2023-02-02T08:10:25.569Z,95955.81
2023-02-02T08:12:54.239Z,95951.16
2023-02-02T08:15:22.914Z,95954.00
2023-02-02T08:17:52.163Z,95957.44
2023-02-02T08:20:21.107Z,95965.94
2023-02-02T08:22:51.290Z,95976.47
2023-02-02T08:25:19.797Z,95984.19
2023-02-02T08:27:48.232Z,95974.03
2023-02-02T08:30:17.332Z,95979.09
2023-02-02T08:32:45.750Z,95974.03
2023-02-02T08:35:14.474Z,95977.69
2023-02-02T08:37:42.986Z,95992.50
2023-02-02T08:40:14.953Z,95992.28
2023-02-02T08:42:46.049Z,95996.31
2023-02-02T08:46:01.532Z,95992.47
2023-02-02T08:48:11.818Z,96001.19
2023-02-02T08:50:41.237Z,95998.53
2023-02-02T08:53:11.676Z,96006.47
2023-02-02T08:55:41.963Z,96011.13
2023-02-02T08:58:11.085Z,96019.03
2023-02-02T09:00:39.929Z,96016.97
2023-02-02T09:03:08.484Z,96011.28
2023-02-02T09:05:38.873Z,96010.06
2023-02-02T09:08:07.569Z,96007.63
2023-02-02T09:10:36.990Z,96018.78
2023-02-02T09:13:08.302Z,96020.19
2023-02-02T09:15:36.932Z,96009.84
2023-02-02T09:18:05.882Z,96013.31
2023-02-02T09:20:34.443Z,96018.19
2023-02-02T09:23:02.757Z,96018.19
2023-02-02T09:25:31.660Z,96015.72
2023-02-02T09:28:00.151Z,96018.38
2023-02-02T09:30:30.424Z,96010.22
2023-02-02T09:32:59.162Z,96021.16
2023-02-02T09:35:27.878Z,96022.16
2023-02-02T09:37:56.807Z,96026.59
2023-02-02T09:40:28.065Z,96034.69
2023-02-02T09:43:01.497Z,96039.34
2023-02-02T09:45:34.840Z,96032.97
2023-02-02T09:48:07.530Z,96041.94
2023-02-02T09:50:40.878Z,96047.81
2023-02-02T09:53:20.492Z,96034.59
2023-02-02T09:55:50.071Z,96039.06
2023-02-02T09:58:21.039Z,96035.41
2023-02-02T10:00:55.515Z,96036.03
2023-02-02T10:03:26.871Z,96041.31
2023-02-02T10:05:57.425Z,96035.63
2023-02-02T10:08:34.895Z,96045.97
2023-02-02T10:11:06.677Z,96035.22
2023-02-02T10:13:37.936Z,96056.59
2023-02-02T10:16:08.920Z,96050.09
2023-02-02T10:18:40.992Z,96058.81
2023-02-02T10:21:13.044Z,96048.06
2023-02-02T10:23:42.589Z,96062.28
2023-02-02T10:26:16.826Z,96053.34
2023-02-02T10:28:50.862Z,96058.78
2023-02-02T10:31:27.407Z,96056.34
2023-02-02T10:34:03.314Z,96059.81
2023-02-02T10:36:37.277Z,96071.63
2023-02-02T10:39:11.446Z,96076.44
2023-02-02T10:41:42.951Z,96069.78
2023-02-02T10:44:18.479Z,96058.81
2023-02-02T10:46:50.282Z,96058.81
2023-02-02T10:49:25.478Z,96054.78
2023-02-02T10:51:58.355Z,96057.63
2023-02-02T10:54:56.446Z,96054.16
2023-02-02T10:57:44.780Z,96056.22
2023-02-02T11:00:22.256Z,96060.91
2023-02-02T11:02:53.890Z,96067.63
2023-02-02T11:05:42.615Z,96073.50
2023-02-02T11:08:16.298Z,96064.16
2023-02-02T11:10:45.349Z,96067.00
2023-02-02T11:13:17.491Z,96074.13
2023-02-02T11:15:46.584Z,96078.22
2023-02-02T11:18:28.729Z,96075.97
2023-02-02T11:20:57.203Z,96083.91
2023-02-02T11:23:26.173Z,96088.56
2023-02-02T11:26:01.929Z,96089.19
2023-02-02T11:28:32.709Z,96084.50
2023-02-02T11:31:01.727Z,96070.50
2023-02-02T11:33:33.736Z,96069.69
2023-02-02T11:36:02.869Z,96074.75
2023-02-02T11:38:31.414Z,96076.38
2023-02-02T11:41:04.051Z,96079.22
2023-02-02T11:43:34.878Z,96085.13
2023-02-02T11:46:05.064Z,96084.91
2023-02-02T11:48:37.503Z,96096.13
2023-02-02T11:51:07.225Z,96108.69
2023-02-02T11:53:37.642Z,96108.53
2023-02-02T11:56:09.349Z,96112.19
2023-02-02T11:58:45.595Z,96113.03
2023-02-02T12:01:26.427Z,96115.84
2023-02-02T12:03:56.979Z,96123.59
2023-02-02T12:06:26.495Z,96119.72
2023-02-02T12:08:56.636Z,96135.16
2023-02-02T12:11:38.898Z,96132.72
2023-02-02T12:14:17.068Z,96138.59
2023-02-02T12:16:53.797Z,96149.16
2023-02-02T12:19:54.312Z,96145.28
2023-02-02T12:22:34.718Z,96146.91
2023-02-02T12:25:09.292Z,96151.59
2023-02-02T12:27:41.174Z,96147.13
2023-02-02T12:30:20.120Z,96137.59
2023-02-02T12:32:59.752Z,96143.06
2023-02-02T12:35:38.446Z,96139.84
2023-02-02T12:38:12.441Z,96146.75
2023-02-02T12:40:53.071Z,96142.25
2023-02-02T12:43:28.203Z,96142.25
2023-02-02T12:46:04.424Z,96149.16
2023-02-02T12:48:45.047Z,96143.06
2023-02-02T12:51:23.676Z,96161.13
2023-02-02T12:54:33.743Z,96157.88
2023-02-02T12:57:07.358Z,96153.03
2023-02-02T12:59:56.556Z,96156.47
2023-02-02T13:02:28.337Z,96162.75
2023-02-02T13:05:03.956Z,96154.03
2023-02-02T13:07:39.926Z,96155.06
2023-02-02T13:10:13.843Z,96155.88
2023-02-02T13:12:43.919Z,96167.22
2023-02-02T13:15:14.861Z,96156.25
2023-02-02T13:17:44.768Z,96167.03
2023-02-02T13:20:20.658Z,96168.63
2023-02-02T13:22:51.815Z,96175.75
2023-02-02T13:25:21.970Z,96187.88
2023-02-02T13:27:50.966Z,96192.59
2023-02-02T13:30:26.504Z,96191.16
2023-02-02T13:32:55.039Z,96191.97
2023-02-02T13:35:26.183Z,96198.88
2023-02-02T13:37:58.380Z,96198.66
2023-02-02T13:40:28.221Z,96198.25
2023-02-02T13:42:59.367Z,96196.22
2023-02-02T13:45:50.458Z,96197.22
2023-02-02T13:48:25.373Z,96206.75
2023-02-02T13:51:27.316Z,96203.31
2023-02-02T13:54:13.591Z,96206.75
2023-02-02T13:56:46.549Z,96211.03
2023-02-02T13:59:38.203Z,96216.09
2023-02-02T14:02:07.605Z,96228.47
2023-02-02T14:04:36.099Z,96223.81
2023-02-02T14:07:06.179Z,96230.09
2023-02-02T14:09:37.466Z,96230.09
2023-02-02T14:12:07.930Z,96239.84
2023-02-02T14:14:35.926Z,96234.75
2023-02-02T14:17:06.660Z,96231.94
2023-02-02T14:19:55.778Z,96241.88
2023-02-02T14:22:43.110Z,96241.03
2023-02-02T14:25:55.462Z,96248.97
2023-02-02T14:28:54.859Z,96246.13
2023-02-02T14:31:54.249Z,96248.56
2023-02-02T14:34:34.917Z,96253.03
2023-02-02T14:37:32.315Z,96252.59
2023-02-02T14:40:04.554Z,96258.31
2023-02-02T14:43:00.836Z,96264.59
2023-02-02T14:45:30.820Z,96272.91
2023-02-02T14:48:00.746Z,96274.72
2023-02-02T14:50:46.588Z,96275.97
2023-02-02T14:53:26.877Z,96278.78
2023-02-02T14:55:58.542Z,96288.72
2023-02-02T14:58:31.543Z,96289.31
2023-02-02T15:01:08.529Z,96292.97
2023-02-02T15:03:39.929Z,96302.91
2023-02-02T15:06:14.939Z,96297.66
2023-02-02T15:08:43.350Z,96298.47
2023-02-02T15:11:32.229Z,96298.66
2023-02-02T15:14:12.131Z,96303.31
2023-02-02T15:16:40.679Z,96310.59
2023-02-02T15:19:15.308Z,96301.25
2023-02-02T15:21:44.279Z,96309.41
2023-02-02T15:24:20.874Z,96312.22
2023-02-02T15:26:49.455Z,96317.88
2023-02-02T15:29:23.415Z,96319.72
2023-02-02T15:31:54.488Z,96324.16
2023-02-02T15:34:25.486Z,96324.16
2023-02-02T15:36:54.685Z,96342.22
2023-02-02T15:39:28.546Z,96346.88
2023-02-02T15:42:10.881Z,96346.69
2023-02-02T15:44:41.575Z,96346.06
2023-02-02T15:47:16.215Z,96347.25
2023-02-02T15:49:45.512Z,96358.81
2023-02-02T15:52:15.371Z,96356.38
2023-02-02T15:54:54.560Z,96368.72
2023-02-02T15:57:30.857Z,96374.00
2023-02-02T16:00:01.868Z,96379.69
2023-02-02T16:02:42.311Z,96392.06
2023-02-02T16:05:45.746Z,96396.13
2023-02-02T16:08:17.063Z,96397.72
2023-02-02T16:10:46.751Z,96400.78
2023-02-02T16:13:27.019Z,96412.50
2023-02-02T16:16:01.842Z,96417.78
2023-02-02T16:18:30.441Z,96423.25
2023-02-02T16:21:00.283Z,96421.44
2023-02-02T16:23:30.807Z,96427.06
2023-02-02T16:26:00.423Z,96444.53
2023-02-02T16:28:29.456Z,96448.16
2023-02-02T16:30:58.747Z,96450.78
2023-02-02T16:33:39.367Z,96454.25
2023-02-02T16:36:25.037Z,96454.66
2023-02-02T16:38:55.396Z,96455.03
2023-02-02T16:41:28.723Z,96461.94
2023-02-02T16:43:57.380Z,96468.22
2023-02-02T16:46:43.767Z,96469.22
2023-02-02T16:52:16.184Z,96467.41
2023-02-02T16:54:51.117Z,96474.47
2023-02-02T16:57:20.845Z,96483.19
2023-02-02T16:59:50.314Z,96492.13
2023-02-02T17:02:22.511Z,96485.03
2023-02-02T17:04:52.316Z,96490.47
2023-02-02T17:07:21.954Z,96491.28
2023-02-02T17:09:50.113Z,96504.66
2023-02-02T17:12:33.777Z,96508.72
2023-02-02T17:15:05.744Z,96508.72
2023-02-02T17:17:33.965Z,96507.28
2023-02-02T17:20:02.113Z,96517.84
2023-02-02T17:22:31.755Z,96519.66
2023-02-02T17:25:00.363Z,96531.22
2023-02-02T17:27:33.814Z,96528.59
2023-02-02T17:30:02.351Z,96539.91
2023-02-02T17:32:30.576Z,96543.38
2023-02-02T17:34:58.718Z,96540.94
2023-02-02T17:37:27.144Z,96541.53
2023-02-02T17:39:57.051Z,96547.63
2023-02-02T17:42:27.473Z,96552.09
2023-02-02T17:44:55.634Z,96551.28
2023-02-02T17:47:23.851Z,96554.94
2023-02-02T17:49:52.121Z,96553.31
2023-02-02T17:52:20.300Z,96553.31
2023-02-02T17:54:48.777Z,96557.56
2023-02-02T17:57:18.313Z,96548.63
2023-02-02T17:59:46.574Z,96554.34
2023-02-02T18:02:14.817Z,96554.34
2023-02-02T18:04:45.475Z,96554.53
2023-02-02T18:07:14.310Z,96551.28
2023-02-02T18:09:42.506Z,96553.09
2023-02-02T18:12:10.678Z,96544.41
2023-02-02T18:14:40.438Z,96545.41
2023-02-02T18:17:09.395Z,96551.66
2023-02-02T18:19:39.304Z,96549.03
2023-02-02T18:22:07.860Z,96549.84
2023-02-02T18:24:36.099Z,96543.78
2023-02-02T18:27:04.343Z,96554.94
2023-02-02T18:29:32.539Z,96555.72
2023-02-02T18:32:02.287Z,96564.06
2023-02-02T18:34:31.707Z,96561.44
2023-02-02T18:36:59.889Z,96564.06
2023-02-02T18:39:28.024Z,96557.97
2023-02-02T18:41:56.209Z,96559.25
2023-02-02T18:44:24.471Z,96564.31
2023-02-02T18:46:53.161Z,96559.06
2023-02-02T18:49:23.085Z,96554.78
2023-02-02T18:51:51.258Z,96564.50
2023-02-02T18:54:20.181Z,96559.63
2023-02-02T18:56:48.308Z,96569.34
2023-02-02T18:59:16.580Z,96565.25
2023-02-02T19:01:44.765Z,96569.13
2023-02-02T19:04:14.268Z,96572.75
2023-02-02T19:07:01.385Z,96576.38
2023-02-02T19:09:29.791Z,96580.22
2023-02-02T19:11:58.053Z,96568.03
2023-02-02T19:14:29.334Z,96569.03
2023-02-02T19:17:00.802Z,96562.97
2023-02-02T19:19:30.339Z,96573.31
2023-02-02T19:22:00.543Z,96569.84
2023-02-02T19:24:29.858Z,96567.84
2023-02-02T19:26:58.156Z,96566.03
2023-02-02T19:29:27.635Z,96573.13
2023-02-02T19:32:00.665Z,96565.59
2023-02-02T19:34:28.956Z,96565.59
2023-02-02T19:36:57.177Z,96566.81
2023-02-02T19:39:28.451Z,96577.13
2023-02-02T19:41:59.324Z,96578.75
2023-02-02T19:44:31.340Z,96578.75
2023-02-02T19:47:00.629Z,96578.97
2023-02-02T19:49:31.373Z,96576.94
2023-02-02T19:51:59.639Z,96571.69
2023-02-02T19:54:31.232Z,96575.94
2023-02-02T19:57:01.975Z,96568.22
2023-02-02T19:59:33.812Z,96568.03
2023-02-02T20:02:09.838Z,96570.66
2023-02-02T20:04:39.237Z,96570.50
2023-02-02T20:07:11.715Z,96562.78
2023-02-02T20:09:41.278Z,96563.97
2023-02-02T20:12:18.764Z,96565.81
2023-02-02T20:14:46.944Z,96567.81
2023-02-02T20:17:18.040Z,96560.72
2023-02-02T20:19:46.467Z,96564.34
2023-02-02T20:22:22.336Z,96548.38
2023-02-02T20:24:51.914Z,96557.28
2023-02-02T20:27:21.022Z,96562.34
2023-02-02T20:29:50.247Z,96563.19
2023-02-02T20:32:21.827Z,96571.25
2023-02-02T20:34:50.454Z,96577.13
2023-02-02T20:37:23.236Z,96574.50
2023-02-02T20:39:56.125Z,96576.75
2023-02-02T20:42:24.459Z,96583.03
2023-02-02T20:44:52.736Z,96579.22
2023-02-02T20:47:20.899Z,96580.84
2023-02-02T20:49:49.034Z,96569.50
2023-02-02T20:52:23.298Z,96578.03
2023-02-02T20:54:51.860Z,96579.84
2023-02-02T20:57:21.484Z,96580.66
2023-02-02T20:59:49.808Z,96576.56
2023-02-02T21:02:19.697Z,96574.56
2023-02-02T21:04:48.282Z,96574.38
2023-02-02T21:07:17.511Z,96576.19
2023-02-02T21:09:45.772Z,96575.19
2023-02-02T21:12:14.031Z,96578.66
2023-02-02T21:14:44.990Z,96583.09
2023-02-02T21:17:15.694Z,96587.75
2023-02-02T21:19:45.541Z,96579.84
2023-02-02T21:22:13.715Z,96584.09
2023-02-02T21:24:42.687Z,96580.03
2023-02-02T21:27:11.034Z,96584.47
2023-02-02T21:29:39.271Z,96573.94
2023-02-02T21:32:09.233Z,96583.66
2023-02-02T21:34:38.157Z,96588.31
2023-02-02T21:37:12.146Z,96579.75
2023-02-02T21:39:42.389Z,96571.69
2023-02-02T21:42:15.048Z,96570.84
2023-02-02T21:44:44.884Z,96569.44
2023-02-02T21:47:30.626Z,96574.72
2023-02-02T21:49:59.882Z,96574.91
2023-02-02T21:52:30.848Z,96577.34
2023-02-02T21:54:59.040Z,96571.44
2023-02-02T21:57:37.736Z,96575.72
2023-02-02T22:00:24.924Z,96576.09
2023-02-02T22:02:54.737Z,96586.81
2023-02-02T22:05:25.485Z,96579.91
2023-02-02T22:07:54.157Z,96586.19
2023-02-02T22:10:36.636Z,96579.31
2023-02-02T22:13:12.962Z,96567.31
2023-02-02T22:15:41.187Z,96568.13
2023-02-02T22:18:17.072Z,96575.03
2023-02-02T22:20:47.252Z,96575.03
2023-02-02T22:23:16.633Z,96581.31
2023-02-02T22:25:44.788Z,96571.97
2023-02-02T22:28:21.332Z,96566.69
2023-02-02T22:30:49.731Z,96569.50
2023-02-02T22:33:19.374Z,96580.88
2023-02-02T22:35:47.663Z,96575.78
2023-02-02T22:38:17.531Z,96579.41
2023-02-02T22:40:46.114Z,96561.97
2023-02-02T22:43:16.269Z,96578.22
2023-02-02T22:45:44.440Z,96564.44
2023-02-02T22:48:12.728Z,96559.97
2023-02-02T22:50:42.336Z,96563.44
2023-02-02T22:53:10.895Z,96565.25
2023-02-02T22:55:39.311Z,96558.97
2023-02-02T22:58:07.435Z,96549.44
2023-02-02T23:00:36.160Z,96548.44
2023-02-02T23:03:04.460Z,96542.34
2023-02-02T23:05:32.694Z,96548.44
2023-02-02T23:08:02.269Z,96535.28
2023-02-02T23:10:35.343Z,96524.09
2023-02-02T23:13:03.928Z,96527.38
2023-02-02T23:15:32.099Z,96531.81
2023-02-02T23:18:00.371Z,96530.19
2023-02-02T23:20:28.816Z,96524.91
2023-02-02T23:22:57.504Z,96521.09
2023-02-02T23:25:27.110Z,96524.56
2023-02-02T23:27:55.266Z,96511.56
2023-02-02T23:30:24.651Z,96520.47
2023-02-02T23:32:53.135Z,96512.38
2023-02-02T23:35:21.603Z,96503.28
2023-02-02T23:37:49.795Z,96517.47
2023-02-02T23:40:18.340Z,96521.53
2023-02-02T23:42:47.925Z,96522.38
2023-02-02T23:45:16.548Z,96517.09
2023-02-02T23:47:44.843Z,96514.47
2023-02-02T23:50:13.180Z,96507.97
2023-02-02T23:52:41.385Z,96512.06
2023-02-02T23:55:10.369Z,96515.31
2023-02-02T23:57:38.516Z,96504.97
